createdAt,value
2023-09-03T00:13:28.819Z,88
2023-09-03T00:23:29.006Z,88
2023-09-03T00:33:29.227Z,88
2023-09-03T00:43:29.412Z,89
2023-09-03T00:53:29.623Z,89
2023-09-03T01:03:29.857Z,89
2023-09-03T01:13:29.998Z,89
2023-09-03T01:23:30.200Z,89
2023-09-03T01:33:30.386Z,89
2023-09-03T01:43:30.615Z,89
2023-09-03T01:53:30.782Z,89
2023-09-03T02:03:31.002Z,89
2023-09-03T02:13:31.183Z,89
2023-09-03T02:23:31.401Z,88
2023-09-03T02:33:31.586Z,89
2023-09-03T02:43:31.760Z,89
2023-09-03T02:53:32.019Z,89
2023-09-03T03:03:32.190Z,89
2023-09-03T03:13:32.355Z,89
2023-09-03T03:33:32.759Z,89
2023-09-03T03:43:32.944Z,89
2023-09-03T03:53:33.133Z,89
2023-09-03T04:03:33.468Z,89
2023-09-03T04:13:33.536Z,89
2023-09-03T04:23:33.743Z,89
2023-09-03T04:43:34.239Z,90
2023-09-03T04:53:34.345Z,90
2023-09-03T05:03:34.609Z,90
2023-09-03T05:13:34.710Z,90
2023-09-03T05:23:34.913Z,90
2023-09-03T05:43:35.302Z,90
2023-09-03T05:53:35.511Z,90
2023-09-03T06:03:35.752Z,90
2023-09-03T06:13:35.886Z,90
2023-09-03T06:23:36.104Z,90
2023-09-03T06:33:36.296Z,90
2023-09-03T06:43:36.480Z,90
2023-09-03T06:53:36.669Z,90
2023-09-03T07:03:36.902Z,90
2023-09-03T07:13:37.104Z,90
2023-09-03T07:23:37.262Z,89
2023-09-03T07:33:37.472Z,88
2023-09-03T07:43:37.655Z,88
2023-09-03T07:53:37.898Z,88
2023-09-03T08:03:38.113Z,87
2023-09-03T08:13:38.264Z,86
2023-09-03T08:23:38.449Z,85
2023-09-03T08:33:38.693Z,84
2023-09-03T08:43:38.832Z,83
2023-09-03T08:53:39.036Z,82
2023-09-03T09:03:39.238Z,81
2023-09-03T09:13:39.434Z,79
2023-09-03T09:23:39.631Z,78
2023-09-03T09:33:39.816Z,77
2023-09-03T09:43:40.020Z,76
2023-09-03T09:53:40.218Z,74
2023-09-03T10:03:40.559Z,72
2023-09-03T10:13:40.594Z,71
2023-09-03T10:23:40.783Z,70
2023-09-03T10:33:40.985Z,70
2023-09-03T10:43:41.193Z,67
2023-09-03T10:53:41.410Z,67
2023-09-03T11:03:41.596Z,65
2023-09-03T11:13:41.786Z,65
2023-09-03T11:23:42.012Z,64
2023-09-03T11:33:42.176Z,63
2023-09-03T11:43:42.365Z,62
2023-09-03T11:53:42.619Z,61
2023-09-03T12:03:42.806Z,60
2023-09-03T12:13:42.944Z,60
2023-09-03T12:23:43.172Z,62
2023-09-03T12:33:43.320Z,60
2023-09-03T12:43:45.183Z,57
2023-09-03T12:53:43.709Z,58
2023-09-03T13:03:44.069Z,58
2023-09-03T13:13:44.122Z,57
2023-09-03T13:23:44.345Z,59
2023-09-03T13:33:44.493Z,60
2023-09-03T13:43:44.776Z,59
2023-09-03T13:53:44.992Z,59
2023-09-03T14:03:45.164Z,60
2023-09-03T14:23:45.509Z,60
2023-09-03T14:33:45.663Z,59
2023-09-03T14:43:45.875Z,59
2023-09-03T14:53:46.057Z,59
2023-09-03T15:03:46.336Z,58
2023-09-03T15:13:46.492Z,57
2023-09-03T15:23:46.698Z,55
2023-09-03T15:33:46.855Z,55
2023-09-03T15:43:47.050Z,55
2023-09-03T15:53:47.264Z,55
2023-09-03T16:03:47.482Z,56
2023-09-03T16:13:47.629Z,57
2023-09-03T16:23:47.818Z,56
2023-09-03T16:33:48.012Z,56
2023-09-03T16:43:48.213Z,57
2023-09-03T16:53:48.451Z,57
2023-09-03T17:03:49.967Z,58
2023-09-03T17:13:48.804Z,59
2023-09-03T17:23:48.982Z,60
2023-09-03T17:33:49.195Z,61
2023-09-03T17:43:49.412Z,63
2023-09-03T18:03:49.808Z,66
2023-09-03T18:33:50.349Z,69
2023-09-03T18:43:50.599Z,71
2023-09-03T18:53:50.817Z,73
2023-09-03T19:03:50.964Z,74
2023-09-03T19:13:51.184Z,76
2023-09-03T19:23:51.321Z,77
2023-09-03T19:33:51.528Z,77
2023-09-03T19:43:51.736Z,78
2023-09-03T19:53:51.921Z,78
2023-09-03T20:03:52.242Z,79
2023-09-03T20:13:52.309Z,79
2023-09-03T20:23:52.512Z,79
2023-09-03T20:33:52.700Z,80
2023-09-03T20:43:52.914Z,80
2023-09-03T20:53:53.094Z,81
2023-09-03T21:03:53.293Z,81
2023-09-03T21:13:53.485Z,81
2023-09-03T21:23:53.688Z,82
2023-09-03T21:33:53.884Z,82
2023-09-03T21:43:54.074Z,82
2023-09-03T22:03:54.552Z,82
2023-09-03T22:13:54.712Z,83
2023-09-03T22:23:54.874Z,83
2023-09-03T22:33:55.057Z,83
2023-09-03T22:43:55.297Z,83
2023-09-03T22:53:55.447Z,83
2023-09-03T23:03:55.689Z,83
2023-09-03T23:13:55.843Z,84
2023-09-03T23:23:56.038Z,84
2023-09-03T23:33:56.230Z,84
2023-09-03T23:43:56.424Z,85
2023-09-03T23:53:56.630Z,85
